createdAt,value
2022-10-05T00:00:18.018Z,13.50
2022-10-05T00:02:46.699Z,13.40
2022-10-05T00:05:19.988Z,13.40
2022-10-05T00:07:47.151Z,13.40
2022-10-05T00:10:19.270Z,13.40
2022-10-05T00:12:47.442Z,13.40
2022-10-05T00:15:16.711Z,13.40
2022-10-05T00:17:44.131Z,13.30
2022-10-05T00:20:20.118Z,13.30
2022-10-05T00:22:47.199Z,13.30
2022-10-05T00:25:18.361Z,13.30
2022-10-05T00:27:53.769Z,13.20
2022-10-05T00:30:22.067Z,13.20
2022-10-05T00:32:48.907Z,13.20
2022-10-05T00:35:17.715Z,13.10
2022-10-05T00:37:45.767Z,13.10
2022-10-05T00:40:50.853Z,13.10
2022-10-05T00:43:20.337Z,13.10
2022-10-05T00:45:57.173Z,13.10
2022-10-05T00:48:42.401Z,13.10
2022-10-05T00:51:11.917Z,13.10
2022-10-05T00:53:47.705Z,13.00
2022-10-05T00:56:48.570Z,13.00
2022-10-05T00:59:18.260Z,13.00
2022-10-05T01:02:06.612Z,13.00
2022-10-05T01:04:56.573Z,12.90
2022-10-05T01:07:44.719Z,12.90
2022-10-05T01:10:22.527Z,12.80
2022-10-05T01:13:14.449Z,12.70
2022-10-05T01:15:54.505Z,12.70
2022-10-05T01:18:39.154Z,12.70
2022-10-05T01:21:26.712Z,12.70
2022-10-05T01:23:59.359Z,12.60
2022-10-05T01:26:49.366Z,12.60
2022-10-05T01:29:32.576Z,12.60
2022-10-05T01:32:18.265Z,12.60
2022-10-05T01:34:54.649Z,12.60
2022-10-05T01:37:39.368Z,12.60
2022-10-05T01:40:19.352Z,12.50
2022-10-05T01:43:19.605Z,12.60
2022-10-05T01:46:10.743Z,12.50
2022-10-05T01:49:15.327Z,12.60
2022-10-05T01:52:00.366Z,12.60
2022-10-05T01:54:49.554Z,12.60
2022-10-05T01:57:39.100Z,12.60
2022-10-05T02:00:07.879Z,12.60
2022-10-05T02:03:16.155Z,12.60
2022-10-05T02:05:55.526Z,12.60
2022-10-05T02:08:34.951Z,12.60
2022-10-05T02:11:07.131Z,12.60
2022-10-05T02:13:44.104Z,12.60
2022-10-05T02:16:21.742Z,12.60
2022-10-05T02:18:52.899Z,12.60
2022-10-05T02:21:21.303Z,12.60
2022-10-05T02:23:52.697Z,12.60
2022-10-05T02:26:20.187Z,12.50
2022-10-05T02:28:53.358Z,12.50
2022-10-05T02:31:25.947Z,12.50
2022-10-05T02:33:52.746Z,12.50
2022-10-05T02:36:38.198Z,12.50
2022-10-05T02:39:31.311Z,12.50
2022-10-05T02:42:16.179Z,12.50
2022-10-05T02:45:09.805Z,12.50
2022-10-05T02:47:52.803Z,12.50
2022-10-05T02:50:31.667Z,12.50
2022-10-05T02:53:21.424Z,12.50
2022-10-05T02:56:03.338Z,12.50
2022-10-05T02:59:01.756Z,12.50
2022-10-05T03:01:47.757Z,12.50
2022-10-05T03:04:26.706Z,12.40
2022-10-05T03:07:19.253Z,12.40
2022-10-05T03:10:01.076Z,12.40
2022-10-05T03:12:39.867Z,12.40
2022-10-05T03:15:28.972Z,12.40
2022-10-05T03:18:10.359Z,12.40
2022-10-05T03:20:46.085Z,12.40
2022-10-05T03:23:25.694Z,12.40
2022-10-05T03:26:23.726Z,12.40
2022-10-05T03:29:07.525Z,12.40
2022-10-05T03:31:54.857Z,12.40
2022-10-05T03:34:40.038Z,12.40
2022-10-05T03:37:28.041Z,12.50
2022-10-05T03:40:18.451Z,12.50
2022-10-05T03:43:06.443Z,12.60
2022-10-05T03:45:52.845Z,12.60
2022-10-05T03:48:33.550Z,12.70
2022-10-05T03:51:28.661Z,12.70
2022-10-05T03:54:00.856Z,12.70
2022-10-05T03:56:41.843Z,12.70
2022-10-05T03:59:14.724Z,12.70
2022-10-05T04:02:01.364Z,12.80
2022-10-05T04:04:42.589Z,12.80
2022-10-05T04:07:19.399Z,12.80
2022-10-05T04:09:49.849Z,12.80
2022-10-05T04:12:41.348Z,12.80
2022-10-05T04:15:38.894Z,12.70
2022-10-05T04:18:19.322Z,12.70
2022-10-05T04:20:53.653Z,12.70
2022-10-05T04:23:36.075Z,12.70
2022-10-05T04:26:09.139Z,12.60
2022-10-05T04:29:03.756Z,12.60
2022-10-05T04:31:58.917Z,12.50
2022-10-05T04:34:45.794Z,12.50
2022-10-05T04:37:25.939Z,12.60
2022-10-05T04:40:30.551Z,12.60
2022-10-05T04:43:15.357Z,12.50
2022-10-05T04:46:23.357Z,12.60
2022-10-05T04:49:05.079Z,12.60
2022-10-05T04:51:51.299Z,12.70
2022-10-05T04:54:55.076Z,12.70
2022-10-05T04:57:42.058Z,12.70
2022-10-05T05:00:23.558Z,12.80
2022-10-05T05:03:24.056Z,12.80
2022-10-05T05:06:18.604Z,12.80
2022-10-05T05:09:18.648Z,12.90
2022-10-05T05:12:00.333Z,12.90
2022-10-05T05:14:48.552Z,12.90
2022-10-05T05:17:43.114Z,12.90
2022-10-05T05:20:28.055Z,12.90
2022-10-05T05:23:04.710Z,12.80
2022-10-05T05:25:55.257Z,12.80
2022-10-05T05:28:33.790Z,12.80
2022-10-05T05:31:15.710Z,12.80
2022-10-05T05:33:52.949Z,12.80
2022-10-05T05:36:36.814Z,12.80
2022-10-05T05:40:08.033Z,12.80
2022-10-05T05:42:47.883Z,12.80
2022-10-05T05:45:22.830Z,12.80
2022-10-05T05:47:54.057Z,12.80
2022-10-05T05:50:38.685Z,12.80
2022-10-05T05:53:11.246Z,12.70
2022-10-05T05:56:02.277Z,12.80
2022-10-05T05:58:59.337Z,12.70
2022-10-05T06:01:38.488Z,12.70
2022-10-05T06:04:15.703Z,12.80
2022-10-05T06:06:53.659Z,12.90
2022-10-05T06:09:32.413Z,12.90
2022-10-05T06:12:07.340Z,12.90
2022-10-05T06:14:48.106Z,12.90
2022-10-05T06:17:47.129Z,12.90
2022-10-05T06:20:30.398Z,13.00
2022-10-05T06:23:01.718Z,13.10
2022-10-05T06:25:54.983Z,13.10
2022-10-05T06:28:24.646Z,13.20
2022-10-05T06:31:13.090Z,13.30
2022-10-05T06:33:54.592Z,13.40
2022-10-05T06:36:38.294Z,13.50
2022-10-05T06:39:42.657Z,13.50
2022-10-05T06:42:15.286Z,13.50
2022-10-05T06:45:20.737Z,13.60
2022-10-05T06:48:02.832Z,13.60
2022-10-05T06:50:48.458Z,13.70
2022-10-05T06:54:04.072Z,13.70
2022-10-05T06:56:39.347Z,13.70
2022-10-05T06:59:14.887Z,13.80
2022-10-05T07:01:56.591Z,13.90
2022-10-05T07:04:41.886Z,13.80
2022-10-05T07:07:39.495Z,13.80
2022-10-05T07:10:36.594Z,13.90
2022-10-05T07:13:06.423Z,13.90
2022-10-05T07:15:36.105Z,13.90
2022-10-05T07:18:36.085Z,13.90
2022-10-05T07:21:11.695Z,13.80
2022-10-05T07:24:02.936Z,13.90
2022-10-05T07:26:46.640Z,13.90
2022-10-05T07:29:29.782Z,14.00
2022-10-05T07:32:15.553Z,14.00
2022-10-05T07:34:59.645Z,14.00
2022-10-05T07:37:57.008Z,14.10
2022-10-05T07:40:44.962Z,14.10
2022-10-05T07:43:45.366Z,14.20
2022-10-05T07:46:26.626Z,14.30
2022-10-05T07:49:03.322Z,14.30
2022-10-05T07:51:36.438Z,14.40
2022-10-05T07:54:27.099Z,14.40
2022-10-05T07:57:07.290Z,14.40
2022-10-05T07:59:43.881Z,14.50
2022-10-05T08:02:42.619Z,14.50
2022-10-05T08:05:22.684Z,14.60
2022-10-05T08:07:54.246Z,14.60
2022-10-05T08:11:02.038Z,14.70
2022-10-05T08:13:54.619Z,14.80
2022-10-05T08:16:26.463Z,14.90
2022-10-05T08:19:15.229Z,14.90
2022-10-05T08:21:48.341Z,15.00
2022-10-05T08:24:39.339Z,15.00
2022-10-05T08:27:13.309Z,15.00
2022-10-05T08:29:56.894Z,15.10
2022-10-05T08:32:48.206Z,15.20
2022-10-05T08:35:55.727Z,15.30
2022-10-05T08:38:31.571Z,15.30
2022-10-05T08:41:01.238Z,15.40
2022-10-05T08:43:52.303Z,15.50
2022-10-05T08:46:49.086Z,15.50
2022-10-05T08:49:18.588Z,15.60
2022-10-05T08:52:22.609Z,15.60
2022-10-05T08:55:29.006Z,15.70
2022-10-05T08:58:20.427Z,15.70
2022-10-05T09:01:04.980Z,15.80
2022-10-05T09:04:02.412Z,15.90
2022-10-05T09:06:52.091Z,16.00
2022-10-05T09:09:59.536Z,16.10
2022-10-05T09:12:59.979Z,16.20
2022-10-05T09:15:44.574Z,16.30
2022-10-05T09:18:35.890Z,16.30
2022-10-05T09:21:17.698Z,16.50
2022-10-05T09:23:49.056Z,16.60
2022-10-05T09:26:45.009Z,16.70
2022-10-05T09:29:33.015Z,16.80
2022-10-05T09:32:16.579Z,17.00
2022-10-05T09:35:05.089Z,17.10
2022-10-05T09:37:56.647Z,17.30
2022-10-05T09:40:35.638Z,17.30
2022-10-05T09:43:40.200Z,17.30
2022-10-05T09:46:36.325Z,17.40
2022-10-05T09:49:03.154Z,17.50
2022-10-05T09:52:06.192Z,17.60
2022-10-05T09:55:08.229Z,17.70
2022-10-05T09:58:02.489Z,17.70
2022-10-05T10:01:03.644Z,17.70
2022-10-05T10:03:57.903Z,18.00
2022-10-05T10:06:52.279Z,18.10
2022-10-05T10:09:41.487Z,18.20
2022-10-05T10:12:19.403Z,18.30
2022-10-05T10:15:31.866Z,18.40
2022-10-05T10:18:39.850Z,18.50
2022-10-05T10:21:18.512Z,18.60
2022-10-05T10:24:14.077Z,18.70
2022-10-05T10:27:05.720Z,18.90
2022-10-05T10:30:03.652Z,19.00
2022-10-05T10:32:43.372Z,19.10
2022-10-05T10:35:32.140Z,19.20
2022-10-05T10:38:50.289Z,19.20
2022-10-05T10:41:19.486Z,19.20
2022-10-05T10:44:04.069Z,19.20
2022-10-05T10:47:04.217Z,19.30
2022-10-05T10:50:05.294Z,19.50
2022-10-05T10:53:00.067Z,19.50
2022-10-05T10:55:29.703Z,19.60
2022-10-05T10:58:31.479Z,19.60
2022-10-05T11:01:43.638Z,19.70
2022-10-05T11:04:40.422Z,19.70
2022-10-05T11:07:40.741Z,19.80
2022-10-05T11:10:46.122Z,19.80
2022-10-05T11:13:22.056Z,19.80
2022-10-05T11:16:03.922Z,19.80
2022-10-05T11:18:50.565Z,19.90
2022-10-05T11:22:02.088Z,19.90
2022-10-05T11:25:06.959Z,20.00
2022-10-05T11:27:33.987Z,19.90
2022-10-05T11:30:22.978Z,20.00
2022-10-05T11:33:06.321Z,20.00
2022-10-05T11:35:58.125Z,20.10
2022-10-05T11:38:43.704Z,20.30
2022-10-05T11:42:09.038Z,20.40
2022-10-05T11:45:06.249Z,20.40
2022-10-05T11:47:51.853Z,20.50
2022-10-05T11:50:43.655Z,20.70
2022-10-05T11:53:23.142Z,20.80
2022-10-05T11:56:16.154Z,20.80
2022-10-05T11:58:51.808Z,21.00
2022-10-05T12:01:31.086Z,21.10
2022-10-05T12:04:16.511Z,21.20
2022-10-05T12:07:11.596Z,21.20
2022-10-05T12:10:14.490Z,21.40
2022-10-05T12:13:04.221Z,21.60
2022-10-05T12:15:42.082Z,21.80
2022-10-05T12:18:13.624Z,21.80
2022-10-05T12:21:02.099Z,22.00
2022-10-05T12:23:34.678Z,22.20
2022-10-05T12:26:11.073Z,22.30
2022-10-05T12:28:51.531Z,22.50
2022-10-05T12:31:21.096Z,22.60
2022-10-05T12:34:03.893Z,22.80
2022-10-05T12:37:02.986Z,22.80
2022-10-05T12:39:38.201Z,22.80
2022-10-05T12:42:42.329Z,22.80
2022-10-05T12:45:27.861Z,22.90
2022-10-05T12:48:12.216Z,23.10
2022-10-05T12:51:03.810Z,23.10
2022-10-05T12:53:49.082Z,23.30
2022-10-05T12:56:41.459Z,23.50
2022-10-05T12:59:11.474Z,23.40
2022-10-05T13:01:46.978Z,23.50
2022-10-05T13:04:50.210Z,23.60
2022-10-05T13:07:19.933Z,23.50
2022-10-05T13:10:24.803Z,23.70
2022-10-05T13:13:05.704Z,23.80
2022-10-05T13:15:55.810Z,23.80
2022-10-05T13:18:49.960Z,24.00
2022-10-05T13:21:45.772Z,24.30
2022-10-05T13:24:42.091Z,24.80
2022-10-05T13:27:18.778Z,24.90
2022-10-05T13:29:54.342Z,25.30
2022-10-05T13:32:25.198Z,25.60
2022-10-05T13:35:11.236Z,25.60
2022-10-05T13:38:02.269Z,25.70
2022-10-05T13:40:49.768Z,26.20
2022-10-05T13:46:13.996Z,26.80
2022-10-05T13:49:08.378Z,26.80
2022-10-05T13:51:46.388Z,26.90
2022-10-05T13:54:30.203Z,27.00
2022-10-05T13:57:07.230Z,27.30
2022-10-05T13:59:47.716Z,27.50
2022-10-05T14:02:24.897Z,27.60
2022-10-05T14:04:58.999Z,27.50
2022-10-05T14:07:34.160Z,27.60
2022-10-05T14:10:04.591Z,27.50
2022-10-05T14:12:39.987Z,27.20
2022-10-05T14:15:22.227Z,26.30
2022-10-05T14:17:51.639Z,25.80
2022-10-05T14:20:19.986Z,25.20
2022-10-05T14:22:53.165Z,24.60
2022-10-05T14:25:20.087Z,24.00
2022-10-05T14:27:59.715Z,23.50
2022-10-05T14:30:28.853Z,23.30
2022-10-05T14:33:04.560Z,23.10
2022-10-05T14:35:49.065Z,22.90
2022-10-05T14:38:20.553Z,22.60
2022-10-05T14:41:21.289Z,22.40
2022-10-05T14:44:04.774Z,22.20
2022-10-05T14:46:32.975Z,22.10
2022-10-05T14:49:24.175Z,22.10
2022-10-05T14:51:52.056Z,22.00
2022-10-05T14:54:33.818Z,22.00
2022-10-05T14:57:06.541Z,21.90
2022-10-05T14:59:36.371Z,21.90
2022-10-05T15:02:56.875Z,21.90
2022-10-05T15:05:43.574Z,21.80
2022-10-05T15:08:30.358Z,21.90
2022-10-05T15:11:06.313Z,21.80
2022-10-05T15:13:45.011Z,21.80
2022-10-05T15:16:28.405Z,21.80
2022-10-05T15:18:56.706Z,21.80
2022-10-05T15:21:57.691Z,21.80
2022-10-05T15:24:31.664Z,21.80
2022-10-05T15:27:02.106Z,21.80
2022-10-05T15:29:48.524Z,21.80
2022-10-05T15:32:21.423Z,21.80
2022-10-05T15:35:08.986Z,21.80
2022-10-05T15:37:44.388Z,21.80
2022-10-05T15:40:37.446Z,21.80
2022-10-05T15:43:17.478Z,21.70
2022-10-05T15:45:57.116Z,21.70
2022-10-05T15:48:43.828Z,21.80
2022-10-05T15:51:40.829Z,21.70
2022-10-05T15:54:35.716Z,21.70
2022-10-05T15:57:11.361Z,21.70
2022-10-05T15:59:57.267Z,21.70
2022-10-05T16:02:37.253Z,21.70
2022-10-05T16:05:06.885Z,21.60
2022-10-05T16:08:03.480Z,21.60
2022-10-05T16:10:34.171Z,21.60
2022-10-05T16:13:19.646Z,21.50
2022-10-05T16:15:58.086Z,21.50
2022-10-05T16:18:46.602Z,21.50
2022-10-05T16:21:35.462Z,21.40
2022-10-05T16:24:10.577Z,21.40
2022-10-05T16:26:38.623Z,21.40
2022-10-05T16:29:20.097Z,21.40
2022-10-05T16:32:11.344Z,21.40
2022-10-05T16:35:11.375Z,21.40
2022-10-05T16:37:58.403Z,21.40
2022-10-05T16:40:50.670Z,21.30
2022-10-05T16:43:49.590Z,21.20
2022-10-05T16:46:43.538Z,21.20
2022-10-05T16:49:15.881Z,21.20
2022-10-05T16:51:50.569Z,21.20
2022-10-05T16:54:46.854Z,21.10
2022-10-05T16:57:22.173Z,21.10
2022-10-05T17:00:26.968Z,21.10
2022-10-05T17:03:11.248Z,21.10
2022-10-05T17:05:55.757Z,21.10
2022-10-05T17:08:56.213Z,21.00
2022-10-05T17:11:31.650Z,21.00
2022-10-05T17:14:27.627Z,21.00
2022-10-05T17:17:29.823Z,20.90
2022-10-05T17:20:17.751Z,20.90
2022-10-05T17:23:21.682Z,20.90
2022-10-05T17:25:54.222Z,20.90
2022-10-05T17:28:57.409Z,20.80
2022-10-05T17:31:27.930Z,20.80
2022-10-05T17:34:06.877Z,20.70
2022-10-05T17:36:53.149Z,20.60
2022-10-05T17:39:22.493Z,20.60
2022-10-05T17:41:49.662Z,20.60
2022-10-05T17:44:24.830Z,20.50
2022-10-05T17:47:02.694Z,20.40
2022-10-05T17:50:08.845Z,20.20
2022-10-05T17:52:58.786Z,20.10
2022-10-05T17:55:34.236Z,19.90
2022-10-05T17:58:23.977Z,19.80
2022-10-05T18:01:07.060Z,19.80
2022-10-05T18:03:51.358Z,19.70
2022-10-05T18:06:28.410Z,19.70
2022-10-05T18:09:13.853Z,19.60
2022-10-05T18:11:49.196Z,19.50
2022-10-05T18:14:25.131Z,19.50
2022-10-05T18:17:11.880Z,19.40
2022-10-05T18:19:39.455Z,19.40
2022-10-05T18:22:15.585Z,19.40
2022-10-05T18:25:06.695Z,19.40
2022-10-05T18:27:45.271Z,19.40
2022-10-05T18:30:20.155Z,19.40
2022-10-05T18:33:04.403Z,19.40
2022-10-05T18:35:58.967Z,19.50
2022-10-05T18:38:46.722Z,19.50
2022-10-05T18:41:21.536Z,19.50
2022-10-05T18:44:12.193Z,19.50
2022-10-05T18:46:48.356Z,19.50
2022-10-05T18:49:43.615Z,19.50
2022-10-05T18:52:29.165Z,19.50
2022-10-05T18:55:11.560Z,19.50
2022-10-05T18:57:54.187Z,19.40
2022-10-05T19:00:23.564Z,19.40
2022-10-05T19:03:22.804Z,19.40
2022-10-05T19:06:12.849Z,19.40
2022-10-05T19:09:06.559Z,19.40
2022-10-05T19:11:51.882Z,19.40
2022-10-05T19:14:46.643Z,19.40
2022-10-05T19:17:24.093Z,19.40
2022-10-05T19:20:12.988Z,19.40
2022-10-05T19:22:57.562Z,19.40
2022-10-05T19:25:50.392Z,19.30
2022-10-05T19:28:41.126Z,19.30
2022-10-05T19:31:08.005Z,19.20
2022-10-05T19:33:56.804Z,19.10
2022-10-05T19:36:29.589Z,19.10
2022-10-05T19:39:12.503Z,19.00
2022-10-05T19:41:52.327Z,19.00
2022-10-05T19:44:53.214Z,19.00
2022-10-05T19:47:32.086Z,19.00
2022-10-05T19:50:18.534Z,19.00
2022-10-05T19:52:49.869Z,19.00
2022-10-05T19:55:26.185Z,19.00
2022-10-05T19:58:01.311Z,19.10
2022-10-05T20:00:34.545Z,19.10
2022-10-05T20:03:23.186Z,19.10
2022-10-05T20:05:54.596Z,19.10
2022-10-05T20:08:26.889Z,19.00
2022-10-05T20:11:08.124Z,19.00
2022-10-05T20:13:35.972Z,19.00
2022-10-05T20:16:25.900Z,19.00
2022-10-05T20:19:11.176Z,19.00
2022-10-05T20:21:39.168Z,19.00
2022-10-05T20:24:12.031Z,19.00
2022-10-05T20:26:59.625Z,18.90
2022-10-05T20:29:26.462Z,18.90
2022-10-05T20:31:53.564Z,18.90
2022-10-05T20:34:21.657Z,19.00
2022-10-05T20:36:49.733Z,19.00
2022-10-05T20:39:18.185Z,19.00
2022-10-05T20:41:45.830Z,19.00
2022-10-05T20:44:13.475Z,19.00
2022-10-05T20:46:41.694Z,19.00
2022-10-05T20:49:10.679Z,19.00
2022-10-05T20:51:40.547Z,19.00
2022-10-05T20:54:08.172Z,19.00
2022-10-05T20:56:35.349Z,19.00
2022-10-05T20:59:02.105Z,19.00
2022-10-05T21:01:30.296Z,19.00
2022-10-05T21:03:57.090Z,19.10
2022-10-05T21:06:29.384Z,19.00
2022-10-05T21:08:56.287Z,19.00
2022-10-05T21:11:23.287Z,19.10
2022-10-05T21:13:51.140Z,19.10
2022-10-05T21:16:19.256Z,19.10
2022-10-05T21:18:48.704Z,19.10
2022-10-05T21:21:17.246Z,19.10
2022-10-05T21:23:45.555Z,19.10
2022-10-05T21:26:12.950Z,19.10
2022-10-05T21:28:40.392Z,19.10
2022-10-05T21:31:10.677Z,19.10
2022-10-05T21:33:37.492Z,19.10
2022-10-05T21:36:04.429Z,19.10
2022-10-05T21:38:31.317Z,19.10
2022-10-05T21:40:58.079Z,19.10
2022-10-05T21:43:25.439Z,19.10
2022-10-05T21:45:55.289Z,19.10
2022-10-05T21:48:23.267Z,19.10
2022-10-05T21:50:50.011Z,19.10
2022-10-05T21:53:19.865Z,19.10
2022-10-05T21:55:48.838Z,19.10
2022-10-05T21:58:18.441Z,19.10
2022-10-05T22:00:45.188Z,19.10
2022-10-05T22:03:12.025Z,19.00
2022-10-05T22:05:38.869Z,19.00
2022-10-05T22:08:05.826Z,19.00
2022-10-05T22:10:33.133Z,19.00
2022-10-05T22:13:04.089Z,19.10
2022-10-05T22:15:31.744Z,19.10
2022-10-05T22:17:59.743Z,19.00
2022-10-05T22:20:27.259Z,19.00
2022-10-05T22:22:54.032Z,19.00
2022-10-05T22:25:21.719Z,18.90
2022-10-05T22:27:49.693Z,18.50
2022-10-05T22:30:17.057Z,18.40
2022-10-05T22:32:44.417Z,18.20
2022-10-05T22:35:11.908Z,18.00
2022-10-05T22:37:38.987Z,17.90
2022-10-05T22:40:07.127Z,17.80
2022-10-05T22:42:34.827Z,17.60
2022-10-05T22:45:01.506Z,17.40
2022-10-05T22:47:28.206Z,17.30
2022-10-05T22:49:55.154Z,17.20
2022-10-05T22:52:21.875Z,17.20
2022-10-05T22:54:48.593Z,17.00
2022-10-05T22:57:15.599Z,17.00
2022-10-05T22:59:42.282Z,17.00
2022-10-05T23:02:09.942Z,16.90
2022-10-05T23:04:36.650Z,16.90
2022-10-05T23:07:03.392Z,16.90
2022-10-05T23:09:30.069Z,16.90
2022-10-05T23:11:57.054Z,16.90
2022-10-05T23:14:23.979Z,17.00
2022-10-05T23:16:50.801Z,17.00
2022-10-05T23:19:17.555Z,17.00
2022-10-05T23:21:44.286Z,17.00
2022-10-05T23:24:11.075Z,17.00
2022-10-05T23:26:37.834Z,17.00
2022-10-05T23:29:04.563Z,17.00
2022-10-05T23:31:33.426Z,17.00
2022-10-05T23:34:00.193Z,17.00
2022-10-05T23:36:32.171Z,16.90
2022-10-05T23:38:59.947Z,16.90
2022-10-05T23:41:26.806Z,16.90
2022-10-05T23:43:55.284Z,16.80
2022-10-05T23:46:22.501Z,16.60
2022-10-05T23:48:50.387Z,16.50
2022-10-05T23:51:17.501Z,16.50
2022-10-05T23:53:44.521Z,16.40
2022-10-05T23:56:11.516Z,16.30
2022-10-05T23:58:38.522Z,16.20
